Time;durP1;ratioP1;P1;durP2;ratioP2;P2;SDS_P1;SDS_P2;PMS_P1;PMS_P2;Temp;Humidity;BMP_temperature;BMP_pressure;BME280_temperature;BME280_humidity;BME280_pressure;Samples;Min_cycle;Max_cycle;Signal;HPM_P1;HPM_P2
2021/01/22 00:00:00;;;;;;;;;;;;;;;3.02;67.69;96157.89;1777064;80;25781;-84
2021/01/22 00:02:27;;;;;;;;;;;;;;;3.03;67.78;96154.17;1791468;80;25670;-82
2021/01/22 00:04:53;;;;;;;;;;;;;;;3.04;67.80;96156.66;1773236;80;28554;-82
2021/01/22 00:07:21;;;;;;;;;;;;;;;3.09;68.01;96155.58;1754005;80;25732;-85
2021/01/22 00:09:48;;;;;;;;;;;;;;;3.12;67.87;96148.52;1736888;81;25734;-84
2021/01/22 00:12:14;;;;;;;;;;;;;;;3.01;67.42;96155.73;1753954;81;25799;-83
2021/01/22 00:14:41;;;;;;;;;;;;;;;2.92;67.44;96158.20;1739739;81;25825;-83
2021/01/22 00:17:08;;;;;;;;;;;;;;;2.88;67.67;96155.12;1752362;81;27497;-82
2021/01/22 00:19:35;;;;;;;;;;;;;;;2.86;67.74;96154.49;1763365;81;25774;-84
2021/01/22 00:22:02;;;;;;;;;;;;;;;2.86;67.95;96157.16;1761838;81;25795;-82
2021/01/22 00:24:29;;;;;;;;;;;;;;;2.87;68.11;96151.32;1737037;81;25775;-84
2021/01/22 00:26:56;;;;;;;;;;;;;;;2.93;68.14;96148.37;1736914;81;25800;-84
2021/01/22 00:29:23;;;;;;;;;;;;;;;2.92;68.23;96139.55;1736920;81;26449;-83
2021/01/22 00:31:50;;;;;;;;;;;;;;;2.96;68.30;96132.82;1736836;81;26308;-84
2021/01/22 00:34:17;;;;;;;;;;;;;;;2.91;68.21;96139.23;1737029;81;25708;-83
2021/01/22 00:36:44;;;;;;;;;;;;;;;2.83;68.28;96134.05;1736932;81;25867;-83
2021/01/22 00:39:11;;;;;;;;;;;;;;;2.86;68.41;96130.50;1736912;81;25848;-84
2021/01/22 00:41:38;;;;;;;;;;;;;;;2.83;68.18;96122.89;1758388;81;28621;-82
2021/01/22 00:44:05;;;;;;;;;;;;;;;2.85;68.25;96122.70;1736896;81;25746;-82
2021/01/22 00:46:32;;;;;;;;;;;;;;;2.77;68.27;96121.02;1736954;81;25823;-83
2021/01/22 00:48:59;;;;;;;;;;;;;;;2.70;68.20;96119.30;1736975;81;25767;-84
2021/01/22 00:51:26;;;;;;;;;;;;;;;2.60;68.11;96112.16;1736900;81;25791;-81
2021/01/22 00:53:53;;;;;;;;;;;;;;;2.52;68.33;96117.95;1769260;80;27502;-84
2021/01/22 00:56:20;;;;;;;;;;;;;;;2.42;68.42;96113.94;1772658;80;25741;-83
2021/01/22 00:58:47;;;;;;;;;;;;;;;2.40;68.54;96110.67;1752817;81;26272;-84
2021/01/22 01:01:14;;;;;;;;;;;;;;;2.41;68.65;96107.82;1746042;80;25763;-84
2021/01/22 01:03:40;;;;;;;;;;;;;;;2.43;68.56;96107.61;1746152;81;25771;-82
2021/01/22 01:06:07;;;;;;;;;;;;;;;2.37;68.37;96097.73;1746095;80;27588;-83
2021/01/22 01:08:34;;;;;;;;;;;;;;;2.22;68.42;96099.13;1751086;81;25809;-83
2021/01/22 01:11:01;;;;;;;;;;;;;;;2.16;68.43;96088.76;1755510;80;25872;-83
2021/01/22 01:13:28;;;;;;;;;;;;;;;2.11;68.61;96095.66;1758702;79;25782;-85
2021/01/22 01:15:55;;;;;;;;;;;;;;;2.07;68.71;96092.55;1747740;80;25766;-84
2021/01/22 01:18:22;;;;;;;;;;;;;;;2.06;68.65;96091.39;1746098;81;27509;-82
2021/01/22 01:20:49;;;;;;;;;;;;;;;1.98;68.45;96096.86;1750048;80;25898;-82
2021/01/22 01:23:16;;;;;;;;;;;;;;;1.89;68.50;96090.84;1763314;80;26338;-84
2021/01/22 01:25:43;;;;;;;;;;;;;;;1.79;68.66;96081.84;1746206;80;25723;-82
2021/01/22 01:28:10;;;;;;;;;;;;;;;1.77;68.63;96086.53;1746184;81;25791;-82
2021/01/22 01:30:37;;;;;;;;;;;;;;;1.70;68.58;96082.95;1746197;81;28672;-81
2021/01/22 01:33:05;;;;;;;;;;;;;;;1.64;68.68;96074.91;1746233;81;25874;-84
2021/01/22 01:35:32;;;;;;;;;;;;;;;1.55;68.68;96077.38;1746273;80;25740;-82
2021/01/22 01:37:59;;;;;;;;;;;;;;;1.49;68.78;96069.63;1746405;81;25815;-82
2021/01/22 01:40:26;;;;;;;;;;;;;;;1.45;68.93;96065.19;1754410;80;26538;-81
2021/01/22 01:42:53;;;;;;;;;;;;;;;1.28;68.87;96072.25;1770874;80;27577;-83
2021/01/22 01:45:20;;;;;;;;;;;;;;;1.19;69.02;96076.03;1746206;81;26330;-84
2021/01/22 01:47:47;;;;;;;;;;;;;;;1.12;69.20;96072.45;1746299;81;25749;-82
2021/01/22 01:50:14;;;;;;;;;;;;;;;1.12;69.42;96064.47;1746366;80;25786;-82
2021/01/22 01:52:41;;;;;;;;;;;;;;;1.05;69.43;96061.23;1760531;80;25708;-83
2021/01/22 01:55:09;;;;;;;;;;;;;;;1.01;69.57;96051.98;1755453;80;28468;-84
2021/01/22 01:57:36;;;;;;;;;;;;;;;1.00;69.67;96048.17;1749164;81;25724;-82
2021/01/22 02:00:05;;;;;;;;;;;;;;;1.00;69.65;96034.38;1761513;80;25934;-82
2021/01/22 02:02:32;;;;;;;;;;;;;;;1.01;69.70;96033.38;1757811;80;25859;-82
2021/01/22 02:04:59;;;;;;;;;;;;;;;0.93;69.63;96021.53;1749298;81;25916;-83
2021/01/22 02:07:26;;;;;;;;;;;;;;;0.95;69.86;96024.84;1749129;81;27563;-83
2021/01/22 02:09:54;;;;;;;;;;;;;;;1.00;69.88;96027.74;1775199;80;25801;-83
2021/01/22 02:12:20;;;;;;;;;;;;;;;0.95;69.80;96024.84;1757424;80;25626;-82
2021/01/22 02:14:48;;;;;;;;;;;;;;;0.88;69.85;96013.28;1754320;80;25848;-83
2021/01/22 02:17:15;;;;;;;;;;;;;;;0.87;69.89;96008.97;1756643;80;25332;-83
2021/01/22 02:20:20;;;;;;;;;;;;;;;0.88;70.00;96001.83;1749118;80;27462;-83
2021/01/22 02:22:47;;;;;;;;;;;;;;;0.90;70.10;95991.34;1748911;80;25680;-83
2021/01/22 02:25:16;;;;;;;;;;;;;;;0.94;70.10;95989.97;1756304;80;25659;-82
2021/01/22 02:27:43;;;;;;;;;;;;;;;0.89;70.06;95992.35;1754481;80;25772;-83
2021/01/22 02:30:10;;;;;;;;;;;;;;;0.88;70.05;95988.55;1749281;80;26025;-83
2021/01/22 02:32:37;;;;;;;;;;;;;;;0.84;70.10;95985.46;1760636;81;27502;-83
2021/01/22 02:35:08;;;;;;;;;;;;;;;0.86;70.19;95986.08;1750269;80;25835;-83
2021/01/22 02:37:36;;;;;;;;;;;;;;;0.89;70.18;95981.72;1749218;80;26368;-84
2021/01/22 02:40:07;;;;;;;;;;;;;;;0.92;70.18;95980.03;1749130;80;26630;-83
2021/01/22 02:42:36;;;;;;;;;;;;;;;0.94;70.09;95970.05;1748412;80;25795;-83
2021/01/22 02:45:04;;;;;;;;;;;;;;;1.00;70.11;95970.61;1749179;80;28465;-83
2021/01/22 02:47:31;;;;;;;;;;;;;;;1.01;70.09;95952.33;1762031;81;26317;-83
2021/01/22 02:49:58;;;;;;;;;;;;;;;1.01;70.04;95948.34;1749202;80;25727;-83
2021/01/22 02:52:25;;;;;;;;;;;;;;;1.03;70.12;95948.98;1755602;80;25767;-83
2021/01/22 02:54:52;;;;;;;;;;;;;;;1.01;70.06;95944.86;1755542;81;25826;-83
2021/01/22 02:57:40;;;;;;;;;;;;;;;0.95;70.06;95935.00;1751695;80;28315;-83
2021/01/22 03:00:24;;;;;;;;;;;;;;;0.93;70.05;95933.86;1766250;80;25719;-83
2021/01/22 03:03:07;;;;;;;;;;;;;;;0.80;69.99;95939.02;1764881;80;25624;-84
2021/01/22 03:05:36;;;;;;;;;;;;;;;0.73;70.00;95938.92;1758907;80;25519;-83
2021/01/22 03:08:14;;;;;;;;;;;;;;;0.68;70.04;95932.53;1749776;80;25789;-82
2021/01/22 03:10:42;;;;;;;;;;;;;;;0.64;70.09;95922.78;1752927;81;28458;-83
2021/01/22 03:13:11;;;;;;;;;;;;;;;0.63;70.16;95930.42;1763213;80;25890;-83
2021/01/22 03:15:39;;;;;;;;;;;;;;;0.58;70.23;95916.90;1755508;80;25735;-82
2021/01/22 03:18:17;;;;;;;;;;;;;;;0.59;70.31;95913.74;1770680;80;25763;-83
2021/01/22 03:20:46;;;;;;;;;;;;;;;0.58;70.48;95906.28;1750280;81;25700;-82
2021/01/22 03:23:14;;;;;;;;;;;;;;;0.60;70.61;95911.41;1764830;81;27487;-82
2021/01/22 03:25:41;;;;;;;;;;;;;;;0.64;70.63;95901.53;1763361;80;25741;-83
2021/01/22 03:28:10;;;;;;;;;;;;;;;0.63;70.67;95901.72;1751410;80;25946;-83
2021/01/22 03:30:38;;;;;;;;;;;;;;;0.55;70.71;95900.50;1746427;80;25811;-82
2021/01/22 03:33:05;;;;;;;;;;;;;;;0.54;70.77;95897.53;1752521;80;25739;-83
2021/01/22 03:35:32;;;;;;;;;;;;;;;0.55;70.75;95895.20;1744490;80;28607;-82
2021/01/22 03:37:59;;;;;;;;;;;;;;;0.55;70.76;95889.38;1755075;80;25827;-83
2021/01/22 03:40:26;;;;;;;;;;;;;;;0.56;70.77;95878.26;1744222;80;25862;-83
2021/01/22 03:42:53;;;;;;;;;;;;;;;0.58;70.81;95886.86;1744375;80;25771;-82
2021/01/22 03:45:20;;;;;;;;;;;;;;;0.60;70.80;95870.25;1744571;80;25809;-83
2021/01/22 03:47:47;;;;;;;;;;;;;;;0.60;70.77;95871.08;1744346;80;27506;-82
2021/01/22 03:50:15;;;;;;;;;;;;;;;0.61;70.81;95863.90;1744123;80;25959;-82
2021/01/22 03:52:42;;;;;;;;;;;;;;;0.57;70.83;95862.14;1757125;80;25909;-82
2021/01/22 03:55:09;;;;;;;;;;;;;;;0.45;70.85;95856.17;1748212;80;25583;-82
2021/01/22 03:57:36;;;;;;;;;;;;;;;0.36;70.95;95856.27;1743837;81;26056;-83
2021/01/22 04:00:05;;;;;;;;;;;;;;;0.32;71.03;95859.48;1743954;80;28526;-81
2021/01/22 04:02:32;;;;;;;;;;;;;;;0.29;71.07;95845.25;1743993;80;25823;-82
2021/01/22 04:05:00;;;;;;;;;;;;;;;0.25;71.16;95846.13;1743960;80;25752;-82
2021/01/22 04:07:27;;;;;;;;;;;;;;;0.21;71.30;95827.62;1749254;80;25773;-83
2021/01/22 04:09:53;;;;;;;;;;;;;;;0.20;71.54;95831.28;1772446;80;25796;-82
2021/01/22 04:12:20;;;;;;;;;;;;;;;0.19;71.51;95820.34;1749054;81;27692;-82
2021/01/22 04:14:47;;;;;;;;;;;;;;;0.20;71.56;95806.06;1749049;80;25824;-83
2021/01/22 04:17:14;;;;;;;;;;;;;;;0.17;71.57;95807.76;1749390;80;25743;-83
2021/01/22 04:19:43;;;;;;;;;;;;;;;0.19;71.65;95811.05;1749213;80;25790;-82
2021/01/22 04:22:10;;;;;;;;;;;;;;;0.20;71.60;95806.06;1749184;80;25868;-83
2021/01/22 04:24:37;;;;;;;;;;;;;;;0.22;71.59;95819.98;1749145;80;28481;-83
2021/01/22 04:27:04;;;;;;;;;;;;;;;0.23;71.59;95814.17;1748969;81;26157;-82
2021/01/22 04:29:31;;;;;;;;;;;;;;;0.19;71.55;95811.56;1762605;80;25547;-84
2021/01/22 04:31:58;;;;;;;;;;;;;;;0.19;71.67;95812.88;1755872;81;26276;-83
2021/01/22 04:34:25;;;;;;;;;;;;;;;0.20;71.77;95807.90;1749100;81;26420;-83
2021/01/22 04:36:52;;;;;;;;;;;;;;;0.22;71.96;95804.05;1749107;81;27567;-83
2021/01/22 04:39:19;;;;;;;;;;;;;;;0.27;72.06;95799.00;1748890;80;25834;-83
2021/01/22 04:41:46;;;;;;;;;;;;;;;0.29;71.84;95790.84;1723639;80;25820;-83
2021/01/22 04:44:13;;;;;;;;;;;;;;;0.26;71.69;95801.33;1761477;80;25735;-83
2021/01/22 04:46:41;;;;;;;;;;;;;;;0.24;71.98;95796.70;1768478;80;25828;-83
2021/01/22 04:49:08;;;;;;;;;;;;;;;0.28;72.11;95797.98;1750955;80;28529;-83
2021/01/22 04:51:36;;;;;;;;;;;;;;;0.34;72.35;95798.58;1749096;80;25768;-83
2021/01/22 04:54:07;;;;;;;;;;;;;;;0.41;72.38;95790.67;1749003;80;25687;-82
2021/01/22 04:56:37;;;;;;;;;;;;;;;0.49;72.39;95780.44;1749561;81;26382;-83
2021/01/22 04:59:07;;;;;;;;;;;;;;;0.56;72.46;95783.50;1758085;81;25737;-82
2021/01/22 05:01:36;;;;;;;;;;;;;;;0.68;72.60;95785.14;1775976;80;28261;-83
2021/01/22 05:04:03;;;;;;;;;;;;;;;0.74;72.61;95780.39;1757574;80;25723;-82
2021/01/22 05:06:30;;;;;;;;;;;;;;;0.74;72.25;95771.09;1749865;81;25929;-83
2021/01/22 05:08:57;;;;;;;;;;;;;;;0.70;72.14;95780.47;1749812;80;25710;-83
2021/01/22 05:11:24;;;;;;;;;;;;;;;0.64;72.01;95782.55;1749727;80;25819;-83
2021/01/22 05:13:52;;;;;;;;;;;;;;;0.56;72.18;95762.76;1749759;81;27706;-83
2021/01/22 05:16:19;;;;;;;;;;;;;;;0.62;72.27;95765.97;1749577;80;25748;-83
2021/01/22 05:18:46;;;;;;;;;;;;;;;0.61;72.14;95762.49;1749683;80;25360;-83
2021/01/22 05:21:13;;;;;;;;;;;;;;;0.51;72.12;95741.25;1749758;80;26548;-83
2021/01/22 05:23:42;;;;;;;;;;;;;;;0.53;72.38;95753.33;1749745;80;25801;-83
2021/01/22 05:26:10;;;;;;;;;;;;;;;0.55;72.21;95739.87;1749814;80;27512;-83
2021/01/22 05:28:45;;;;;;;;;;;;;;;0.51;72.15;95744.73;1749689;80;25845;-82
2021/01/22 05:31:14;;;;;;;;;;;;;;;0.49;72.16;95739.28;1749719;80;25866;-83
2021/01/22 05:33:56;;;;;;;;;;;;;;;0.47;72.24;95743.98;1749814;80;25717;-82
2021/01/22 05:36:29;;;;;;;;;;;;;;;0.49;72.37;95740.62;1749824;81;25819;-83
2021/01/22 05:38:59;;;;;;;;;;;;;;;0.52;72.42;95729.62;1749887;80;27504;-83
2021/01/22 05:41:27;;;;;;;;;;;;;;;0.60;72.79;95729.52;1749699;80;25785;-82
2021/01/22 05:43:55;;;;;;;;;;;;;;;0.73;73.35;95722.97;1749770;80;25782;-83
2021/01/22 05:46:25;;;;;;;;;;;;;;;0.99;73.71;95710.41;1759403;80;26317;-83
2021/01/22 05:49:12;;;;;;;;;;;;;;;1.24;73.72;95725.41;1750233;80;25720;-83
2021/01/22 05:51:40;;;;;;;;;;;;;;;1.47;73.92;95719.83;1749808;80;27508;-84
2021/01/22 05:54:08;;;;;;;;;;;;;;;1.85;74.01;95697.61;1749647;81;25910;-83
2021/01/22 05:56:35;;;;;;;;;;;;;;;2.24;74.15;95691.09;1749516;80;25859;-83
2021/01/22 05:59:05;;;;;;;;;;;;;;;2.56;74.08;95691.34;1749550;80;26716;-83
2021/01/22 06:01:32;;;;;;;;;;;;;;;2.88;73.85;95698.56;1748160;80;25945;-83
2021/01/22 06:04:09;;;;;;;;;;;;;;;3.16;73.57;95699.14;1774922;80;27570;-83
2021/01/22 06:06:36;;;;;;;;;;;;;;;3.51;73.24;95697.03;1749565;80;25876;-83
2021/01/22 06:09:05;;;;;;;;;;;;;;;3.76;73.07;95703.84;1760729;80;25747;-83
2021/01/22 06:11:33;;;;;;;;;;;;;;;3.89;72.81;95709.14;1749603;80;25856;-83
2021/01/22 06:14:03;;;;;;;;;;;;;;;3.98;72.60;95711.88;1771413;80;25743;-83
2021/01/22 06:16:30;;;;;;;;;;;;;;;4.06;72.39;95716.17;1748782;81;27523;-82
2021/01/22 06:19:00;;;;;;;;;;;;;;;4.20;72.32;95713.75;1749571;80;26605;-83
2021/01/22 06:21:35;;;;;;;;;;;;;;;4.36;72.15;95715.09;1749677;80;25345;-83
2021/01/22 06:24:04;;;;;;;;;;;;;;;4.53;71.98;95708.74;1749610;80;25790;-84
2021/01/22 06:26:32;;;;;;;;;;;;;;;4.69;71.80;95712.25;1760148;81;25737;-84
2021/01/22 06:29:05;;;;;;;;;;;;;;;4.86;71.58;95712.52;1752143;81;27299;-84
2021/01/22 06:31:32;;;;;;;;;;;;;;;4.93;71.32;95702.62;1745831;80;25695;-84
2021/01/22 06:34:01;;;;;;;;;;;;;;;5.05;71.21;95702.22;1745892;80;25885;-83
2021/01/22 06:36:27;;;;;;;;;;;;;;;5.17;71.03;95696.97;1765252;80;25731;-84
2021/01/22 06:38:55;;;;;;;;;;;;;;;5.25;70.87;95698.84;1747848;80;25838;-84
2021/01/22 06:41:27;;;;;;;;;;;;;;;5.31;70.75;95700.63;1746001;81;27506;-83
2021/01/22 06:43:56;;;;;;;;;;;;;;;5.39;70.66;95699.54;1745925;80;25813;-86
2021/01/22 06:46:28;;;;;;;;;;;;;;;5.54;70.61;95705.89;1746034;80;25826;-87
2021/01/22 06:49:01;;;;;;;;;;;;;;;5.70;70.44;95711.47;1746023;80;25728;-84
2021/01/22 06:51:30;;;;;;;;;;;;;;;5.87;70.35;95698.32;1746074;80;25885;-84
2021/01/22 06:54:16;;;;;;;;;;;;;;;6.01;70.12;95697.16;1745908;80;27318;-85
2021/01/22 06:56:53;;;;;;;;;;;;;;;6.08;69.87;95689.85;1741871;81;26180;-83
2021/01/22 06:59:25;;;;;;;;;;;;;;;6.29;69.77;95679.69;1740237;81;25753;-83
2021/01/22 07:01:53;;;;;;;;;;;;;;;6.39;69.57;95680.81;1761682;80;25754;-84
2021/01/22 07:04:37;;;;;;;;;;;;;;;6.47;69.37;95695.23;1740180;81;25795;-84
2021/01/22 07:07:05;;;;;;;;;;;;;;;6.52;69.30;95685.14;1741472;81;27710;-83
2021/01/22 07:09:46;;;;;;;;;;;;;;;6.62;69.11;95692.66;1747838;81;25299;-84
2021/01/22 07:12:16;;;;;;;;;;;;;;;6.63;68.99;95691.09;1740030;81;25795;-84
2021/01/22 07:14:48;;;;;;;;;;;;;;;6.70;69.08;95696.35;1739973;81;26479;-83
2021/01/22 07:17:27;;;;;;;;;;;;;;;6.81;68.93;95696.38;1754567;81;25785;-84
2021/01/22 07:20:00;;;;;;;;;;;;;;;6.92;68.87;95698.80;1740169;81;27488;-83
2021/01/22 07:22:29;;;;;;;;;;;;;;;7.04;68.76;95701.50;1740046;81;25642;-83
2021/01/22 07:24:58;;;;;;;;;;;;;;;7.17;68.71;95709.34;1740252;81;25755;-83
2021/01/22 07:27:43;;;;;;;;;;;;;;;7.25;68.46;95704.97;1740265;81;25768;-83
2021/01/22 07:30:18;;;;;;;;;;;;;;;7.31;68.42;95698.70;1740183;81;25792;-85
2021/01/22 07:32:48;;;;;;;;;;;;;;;7.37;68.24;95709.83;1740221;81;27508;-83
2021/01/22 07:35:23;;;;;;;;;;;;;;;7.47;68.07;95696.67;1740029;81;25724;-85
2021/01/22 07:37:52;;;;;;;;;;;;;;;7.54;67.92;95697.88;1740012;81;25863;-82
2021/01/22 07:40:20;;;;;;;;;;;;;;;7.60;67.74;95706.36;1754575;81;25796;-83
2021/01/22 07:42:47;;;;;;;;;;;;;;;7.70;67.66;95715.17;1740205;81;25799;-83
2021/01/22 07:45:16;;;;;;;;;;;;;;;7.75;67.46;95712.05;1740052;81;28407;-83
2021/01/22 07:47:46;;;;;;;;;;;;;;;7.81;67.35;95708.97;1740053;81;25754;-82
2021/01/22 07:50:18;;;;;;;;;;;;;;;7.86;67.13;95713.09;1740112;81;25818;-84
2021/01/22 07:52:47;;;;;;;;;;;;;;;7.91;66.92;95707.31;1740119;81;26386;-84
2021/01/22 07:55:22;;;;;;;;;;;;;;;7.96;66.74;95706.62;1761556;81;25885;-85
2021/01/22 07:58:05;;;;;;;;;;;;;;;7.97;66.73;95706.88;1764786;79;26001;-83
2021/01/22 08:00:39;;;;;;;;;;;;;;;8.03;66.62;95715.36;1754102;81;25750;-84
2021/01/22 08:03:08;;;;;;;;;;;;;;;8.14;66.47;95725.27;1774763;80;26090;-84
2021/01/22 08:05:37;;;;;;;;;;;;;;;8.23;66.08;95728.40;1754473;80;25801;-83
2021/01/22 08:08:21;;;;;;;;;;;;;;;8.33;66.02;95730.53;1754154;81;25888;-84
2021/01/22 08:10:48;;;;;;;;;;;;;;;8.39;65.78;95721.50;1754040;81;27518;-84
2021/01/22 08:13:16;;;;;;;;;;;;;;;8.43;65.72;95731.55;1753984;81;25701;-86
2021/01/22 08:15:44;;;;;;;;;;;;;;;8.49;65.37;95733.80;1754200;80;25932;-85
2021/01/22 08:18:13;;;;;;;;;;;;;;;8.50;65.35;95733.56;1770059;79;25671;-83
2021/01/22 08:20:51;;;;;;;;;;;;;;;8.52;65.27;95738.70;1759225;80;25651;-84
2021/01/22 08:23:19;;;;;;;;;;;;;;;8.55;65.07;95731.52;1754144;80;27508;-87
2021/01/22 08:25:46;;;;;;;;;;;;;;;8.58;65.11;95735.87;1754012;80;25774;-84
2021/01/22 08:28:13;;;;;;;;;;;;;;;8.64;64.61;95747.55;1754131;81;26011;-85
2021/01/22 08:30:40;;;;;;;;;;;;;;;8.72;64.64;95736.94;1754054;80;25823;-85
2021/01/22 08:33:08;;;;;;;;;;;;;;;8.77;64.34;95743.77;1754131;80;25764;-85
2021/01/22 08:35:35;;;;;;;;;;;;;;;8.84;64.22;95747.94;1754127;80;27698;-87
2021/01/22 08:38:02;;;;;;;;;;;;;;;8.87;64.05;95757.41;1753956;80;25762;-86
2021/01/22 08:40:40;;;;;;;;;;;;;;;8.87;64.11;95754.19;1754091;81;25763;-85
2021/01/22 08:43:09;;;;;;;;;;;;;;;8.84;63.77;95754.66;1754071;81;26531;-85
2021/01/22 08:45:37;;;;;;;;;;;;;;;8.82;63.84;95758.12;1754329;81;25839;-85
2021/01/22 08:48:05;;;;;;;;;;;;;;;8.82;63.88;95782.86;1754032;81;27665;-85
2021/01/22 08:50:33;;;;;;;;;;;;;;;8.82;63.85;95771.57;1740035;80;44664;-84
2021/01/22 08:53:09;;;;;;;;;;;;;;;8.82;63.89;95758.12;1763242;80;25733;-84
2021/01/22 08:55:38;;;;;;;;;;;;;;;8.81;63.88;95774.53;1754070;80;25740;-85
2021/01/22 08:58:13;;;;;;;;;;;;;;;8.83;63.96;95782.62;1754778;80;25815;-83
2021/01/22 09:00:41;;;;;;;;;;;;;;;8.85;64.00;95782.39;1759383;80;27957;-83
2021/01/22 09:03:23;;;;;;;;;;;;;;;8.87;63.96;95777.06;1752180;80;25813;-84
2021/01/22 09:05:54;;;;;;;;;;;;;;;8.90;63.95;95779.28;1751221;80;25464;-83
2021/01/22 09:08:24;;;;;;;;;;;;;;;8.95;63.87;95792.81;1760419;80;26434;-85
2021/01/22 09:10:51;;;;;;;;;;;;;;;8.98;63.53;95793.69;1765908;80;25666;-86
2021/01/22 09:13:21;;;;;;;;;;;;;;;9.01;63.33;95786.48;1769183;80;27777;-84
2021/01/22 09:15:49;;;;;;;;;;;;;;;9.02;63.35;95789.47;1749009;81;26186;-87
2021/01/22 09:18:23;;;;;;;;;;;;;;;9.03;63.20;95780.34;1733273;80;25838;-85
2021/01/22 09:21:07;;;;;;;;;;;;;;;9.03;63.08;95785.72;1763273;80;26453;-85
2021/01/22 09:23:37;;;;;;;;;;;;;;;9.01;62.89;95786.48;1767574;80;25855;-87
2021/01/22 09:26:04;;;;;;;;;;;;;;;9.02;62.93;95788.13;1755672;80;27489;-85
2021/01/22 09:28:31;;;;;;;;;;;;;;;9.03;62.83;95778.17;1760833;80;26316;-84
2021/01/22 09:30:58;;;;;;;;;;;;;;;9.03;62.99;95772.27;1753900;79;25757;-84
2021/01/22 09:33:26;;;;;;;;;;;;;;;9.07;63.06;95775.27;1756839;80;25731;-85
2021/01/22 09:35:53;;;;;;;;;;;;;;;9.12;63.04;95761.09;1744179;80;25664;-84
2021/01/22 09:38:21;;;;;;;;;;;;;;;9.17;63.07;95766.05;1754553;81;27703;-86
2021/01/22 09:40:49;;;;;;;;;;;;;;;9.27;63.07;95772.96;1755977;80;25938;-84
2021/01/22 09:43:17;;;;;;;;;;;;;;;9.30;62.99;95768.94;1765071;80;25723;-85
2021/01/22 09:45:45;;;;;;;;;;;;;;;9.33;62.86;95776.55;1757595;80;26380;-85
2021/01/22 09:48:15;;;;;;;;;;;;;;;9.35;62.48;95768.52;1750430;80;25811;-83
2021/01/22 09:50:41;;;;;;;;;;;;;;;9.37;62.35;95760.20;1755292;80;29310;-84
2021/01/22 09:53:08;;;;;;;;;;;;;;;9.41;62.34;95753.27;1756643;80;26086;-85
2021/01/22 09:55:35;;;;;;;;;;;;;;;9.50;62.15;95751.80;1755368;80;25953;-86
2021/01/22 09:58:02;;;;;;;;;;;;;;;9.68;62.34;95753.42;1757940;80;26409;-87
2021/01/22 10:00:30;;;;;;;;;;;;;;;9.79;62.14;95760.59;1757360;80;25982;-84
2021/01/22 10:02:58;;;;;;;;;;;;;;;9.80;61.31;95753.33;1757118;80;28530;-85
2021/01/22 10:05:25;;;;;;;;;;;;;;;9.99;61.41;95756.06;1758091;80;26302;-86
2021/01/22 10:07:52;;;;;;;;;;;;;;;10.15;61.24;95745.76;1757367;80;25818;-85
2021/01/22 10:10:19;;;;;;;;;;;;;;;10.18;61.05;95744.45;1757169;81;25746;-85
2021/01/22 10:12:50;;;;;;;;;;;;;;;10.10;60.83;95747.05;1756799;80;25843;-87
2021/01/22 10:15:17;;;;;;;;;;;;;;;10.02;60.71;95744.23;1759582;80;27416;-82
2021/01/22 10:17:44;;;;;;;;;;;;;;;9.97;60.79;95742.01;1760238;81;27181;-88
2021/01/22 10:20:12;;;;;;;;;;;;;;;9.90;60.51;95758.34;1770988;80;25841;-84
2021/01/22 10:22:39;;;;;;;;;;;;;;;9.85;60.67;95750.72;1756820;80;26445;-87
2021/01/22 10:25:07;;;;;;;;;;;;;;;9.80;60.73;95760.06;1754254;81;26258;-82
2021/01/22 10:27:34;;;;;;;;;;;;;;;9.78;60.78;95757.61;1754229;81;28382;-81
2021/01/22 10:30:01;;;;;;;;;;;;;;;9.77;60.88;95759.23;1754002;81;25711;-82
2021/01/22 10:32:28;;;;;;;;;;;;;;;9.77;60.95;95772.70;1763319;80;26393;-82
2021/01/22 10:34:55;;;;;;;;;;;;;;;9.72;60.95;95751.34;1781224;80;26532;-83
2021/01/22 10:37:22;;;;;;;;;;;;;;;9.72;60.84;95760.77;1767256;80;25853;-83
2021/01/22 10:39:50;;;;;;;;;;;;;;;9.69;60.78;95759.09;1754219;80;28404;-82
2021/01/22 10:42:17;;;;;;;;;;;;;;;9.72;60.87;95759.42;1756003;80;26123;-82
2021/01/22 10:44:44;;;;;;;;;;;;;;;9.77;60.91;95764.09;1765459;80;25759;-82
2021/01/22 10:47:11;;;;;;;;;;;;;;;9.80;61.04;95761.41;1775404;80;25819;-84
2021/01/22 10:49:38;;;;;;;;;;;;;;;9.81;61.01;95764.39;1759143;80;26079;-84
2021/01/22 10:52:05;;;;;;;;;;;;;;;9.81;60.76;95759.00;1754348;81;27514;-85
2021/01/22 10:54:32;;;;;;;;;;;;;;;9.82;60.63;95747.17;1754257;80;26255;-83
2021/01/22 10:56:59;;;;;;;;;;;;;;;9.76;60.65;95730.13;1753541;80;25808;-82
2021/01/22 10:59:26;;;;;;;;;;;;;;;9.84;60.52;95737.78;1751149;80;25658;-83
2021/01/22 11:01:53;;;;;;;;;;;;;;;9.82;60.61;95734.51;1751350;80;25994;-82
2021/01/22 11:04:21;;;;;;;;;;;;;;;9.82;60.55;95729.12;1751177;80;27660;-81
2021/01/22 11:06:48;;;;;;;;;;;;;;;9.84;60.65;95735.61;1751328;80;26417;-83
2021/01/22 11:09:15;;;;;;;;;;;;;;;9.82;60.56;95720.22;1763046;80;26149;-84
2021/01/22 11:11:42;;;;;;;;;;;;;;;9.81;60.68;95725.32;1779085;80;26456;-82
2021/01/22 11:14:09;;;;;;;;;;;;;;;9.81;60.57;95713.20;1738031;80;25791;-85
2021/01/22 11:16:36;;;;;;;;;;;;;;;9.75;60.55;95713.67;1758914;80;27769;-85
2021/01/22 11:19:06;;;;;;;;;;;;;;;9.70;60.45;95716.27;1740228;80;26353;-86
2021/01/22 11:21:34;;;;;;;;;;;;;;;9.71;60.57;95722.77;1756739;81;25692;-86
2021/01/22 11:24:03;;;;;;;;;;;;;;;9.65;60.50;95708.95;1768414;80;26563;-85
2021/01/22 11:26:30;;;;;;;;;;;;;;;9.64;60.42;95710.02;1744841;81;25799;-82
2021/01/22 11:28:57;;;;;;;;;;;;;;;9.64;60.42;95697.89;1773320;80;27715;-82
2021/01/22 11:31:25;;;;;;;;;;;;;;;9.64;60.11;95705.97;1751060;80;26306;-82
2021/01/22 11:33:53;;;;;;;;;;;;;;;9.67;60.27;95710.02;1756778;81;25757;-82
2021/01/22 11:36:20;;;;;;;;;;;;;;;9.65;59.97;95703.56;1751656;80;25798;-86
2021/01/22 11:38:47;;;;;;;;;;;;;;;9.63;59.90;95704.34;1760738;80;25797;-82
2021/01/22 11:41:14;;;;;;;;;;;;;;;9.65;59.66;95701.40;1752616;80;29143;-82
2021/01/22 11:43:41;;;;;;;;;;;;;;;9.65;59.64;95706.26;1753697;80;25313;-81
2021/01/22 11:46:08;;;;;;;;;;;;;;;9.68;59.55;95694.96;1766973;79;25738;-82
2021/01/22 11:48:36;;;;;;;;;;;;;;;9.71;59.54;95693.13;1756159;80;26580;-85
2021/01/22 11:51:03;;;;;;;;;;;;;;;9.75;59.47;95701.02;1759874;80;25833;-89
2021/01/22 11:53:30;;;;;;;;;;;;;;;9.79;59.32;95701.84;1756221;80;27473;-87
2021/01/22 11:55:57;;;;;;;;;;;;;;;9.81;59.29;95691.64;1750927;81;26337;-88
2021/01/22 11:58:24;;;;;;;;;;;;;;;9.85;59.21;95680.66;1752833;80;25803;-86
2021/01/22 12:00:51;;;;;;;;;;;;;;;9.93;59.30;95693.16;1754439;80;25825;-87
2021/01/22 12:03:18;;;;;;;;;;;;;;;9.99;58.75;95681.94;1754179;80;25899;-86
2021/01/22 12:05:45;;;;;;;;;;;;;;;10.03;58.39;95672.27;1758685;81;27480;-86
2021/01/22 12:08:12;;;;;;;;;;;;;;;10.09;58.54;95665.89;1762083;81;25823;-79
2021/01/22 12:10:39;;;;;;;;;;;;;;;10.16;58.61;95656.25;1759643;81;26276;-81
2021/01/22 12:13:06;;;;;;;;;;;;;;;10.20;58.29;95648.80;1761942;80;26332;-83
2021/01/22 12:15:33;;;;;;;;;;;;;;;10.21;58.16;95649.09;1762819;80;25782;-79
2021/01/22 12:18:02;;;;;;;;;;;;;;;10.20;58.06;95645.28;1759326;80;27496;-80
2021/01/22 12:20:30;;;;;;;;;;;;;;;10.17;57.67;95634.44;1767853;80;25858;-82
2021/01/22 12:22:57;;;;;;;;;;;;;;;10.16;57.86;95628.76;1758703;81;25770;-83
2021/01/22 12:25:24;;;;;;;;;;;;;;;10.19;57.72;95621.55;1768285;80;26507;-80
2021/01/22 12:27:51;;;;;;;;;;;;;;;10.19;57.71;95614.81;1758738;81;25882;-81
2021/01/22 12:30:19;;;;;;;;;;;;;;;10.21;57.75;95629.39;1762115;79;28391;-81
2021/01/22 12:32:46;;;;;;;;;;;;;;;10.21;57.69;95626.16;1755071;80;26204;-80
2021/01/22 12:35:14;;;;;;;;;;;;;;;10.22;57.57;95633.19;1754065;80;25773;-85
2021/01/22 12:37:41;;;;;;;;;;;;;;;10.24;57.48;95621.62;1753958;80;26818;-80
2021/01/22 12:40:09;;;;;;;;;;;;;;;10.25;57.12;95625.14;1757576;81;25746;-83
2021/01/22 12:42:36;;;;;;;;;;;;;;;10.23;57.36;95625.92;1757574;80;28490;-84
2021/01/22 12:45:05;;;;;;;;;;;;;;;10.23;57.30;95628.08;1754207;81;25937;-87
2021/01/22 12:47:32;;;;;;;;;;;;;;;10.25;57.45;95613.00;1754328;80;25769;-87
2021/01/22 12:49:59;;;;;;;;;;;;;;;10.26;57.42;95608.70;1764133;80;25731;-85
2021/01/22 12:52:26;;;;;;;;;;;;;;;10.22;57.32;95626.45;1757693;81;25810;-89
2021/01/22 12:54:53;;;;;;;;;;;;;;;10.20;57.31;95619.14;1754138;80;27783;-88
2021/01/22 12:57:20;;;;;;;;;;;;;;;10.16;57.35;95615.27;1757690;81;25782;-89
2021/01/22 12:59:47;;;;;;;;;;;;;;;10.11;57.50;95627.37;1755344;80;26307;-90
2021/01/22 13:02:14;;;;;;;;;;;;;;;10.11;57.85;95621.44;1768006;80;26432;-87